Time;durP1;ratioP1;P1;durP2;ratioP2;P2;SDS_P1;SDS_P2;PMS_P1;PMS_P2;Temp;Humidity;BMP_temperature;BMP_pressure;BME280_temperature;BME280_humidity;BME280_pressure;Samples;Min_cycle;Max_cycle;Signal;HPM_P1;HPM_P2
2022/09/17 00:00:05;;;;;;;7.28;4.60;;;;;;;;;;5036301;28;20049;-85
2022/09/17 00:02:33;;;;;;;7.03;4.20;;;;;;;;;;5036355;28;20060;-85
2022/09/17 00:05:00;;;;;;;11.30;4.60;;;;;;;;;;5038127;28;20496;-85
2022/09/17 00:07:28;;;;;;;5.38;4.53;;;;;;;;;;5035903;28;20049;-85
2022/09/17 00:09:55;;;;;;;8.48;4.18;;;;;;;;;;5035646;28;20059;-84
2022/09/17 00:12:22;;;;;;;8.07;3.80;;;;;;;;;;5035361;28;20053;-84
2022/09/17 00:14:49;;;;;;;8.57;4.13;;;;;;;;;;5035566;28;20056;-85
2022/09/17 00:17:16;;;;;;;7.13;3.63;;;;;;;;;;5034954;28;20044;-84
2022/09/17 00:19:43;;;;;;;6.05;3.13;;;;;;;;;;5038595;28;20052;-85
2022/09/17 00:22:10;;;;;;;5.70;3.20;;;;;;;;;;5055290;28;20048;-84
2022/09/17 00:24:37;;;;;;;10.30;3.28;;;;;;;;;;5055138;28;20507;-84
2022/09/17 00:27:04;;;;;;;8.45;3.05;;;;;;;;;;5055390;28;20509;-85
2022/09/17 00:29:31;;;;;;;9.43;3.30;;;;;;;;;;5055373;28;20070;-85
2022/09/17 00:31:59;;;;;;;11.90;3.60;;;;;;;;;;5056317;28;20059;-85
2022/09/17 00:34:26;;;;;;;9.15;3.47;;;;;;;;;;5056122;28;20067;-84
2022/09/17 00:36:53;;;;;;;8.30;3.70;;;;;;;;;;5055151;28;20048;-85
2022/09/17 00:39:20;;;;;;;9.45;2.30;;;;;;;;;;5054979;28;20063;-85
2022/09/17 00:41:47;;;;;;;5.40;3.20;;;;;;;;;;5055173;28;20066;-85
2022/09/17 00:44:33;;;;;;;5.22;2.45;;;;;;;;;;5057999;28;20052;-84
2022/09/17 00:47:00;;;;;;;5.15;2.75;;;;;;;;;;5059095;28;20075;-85
2022/09/17 00:49:29;;;;;;;6.63;2.42;;;;;;;;;;5058931;28;20055;-85
2022/09/17 00:52:04;;;;;;;5.47;2.60;;;;;;;;;;5060580;28;20411;-85
2022/09/17 00:54:32;;;;;;;6.43;2.63;;;;;;;;;;5056771;28;20044;-85
2022/09/17 00:56:59;;;;;;;3.72;2.70;;;;;;;;;;5074733;28;20059;-85
2022/09/17 00:59:26;;;;;;;4.95;2.60;;;;;;;;;;5066777;28;20049;-85
2022/09/17 01:01:54;;;;;;;6.10;2.60;;;;;;;;;;5058468;28;20427;-85
2022/09/17 01:04:22;;;;;;;3.97;2.72;;;;;;;;;;5076379;28;20052;-85
2022/09/17 01:06:55;;;;;;;9.35;3.25;;;;;;;;;;5058617;28;20110;-85
2022/09/17 01:09:38;;;;;;;6.18;2.92;;;;;;;;;;5059271;28;20053;-85
2022/09/17 01:12:14;;;;;;;5.37;3.10;;;;;;;;;;5059243;28;20047;-85
2022/09/17 01:14:51;;;;;;;3.00;2.67;;;;;;;;;;5059608;28;20494;-85
2022/09/17 01:17:36;;;;;;;6.70;3.00;;;;;;;;;;5076803;28;20051;-85
2022/09/17 01:20:21;;;;;;;4.65;3.35;;;;;;;;;;5076985;28;20053;-85
2022/09/17 01:22:50;;;;;;;4.82;3.25;;;;;;;;;;5067914;28;20108;-85
2022/09/17 01:25:18;;;;;;;4.22;3.10;;;;;;;;;;5062889;28;20077;-90
2022/09/17 01:28:04;;;;;;;5.50;3.33;;;;;;;;;;5042466;28;20084;-90
2022/09/17 01:30:50;;;;;;;4.60;3.63;;;;;;;;;;5058921;28;20124;-90
2022/09/17 01:33:22;;;;;;;5.82;3.90;;;;;;;;;;5061594;28;20132;-90
2022/09/17 01:36:08;;;;;;;7.85;4.68;;;;;;;;;;5058656;28;20091;-91
2022/09/17 01:38:38;;;;;;;8.20;3.72;;;;;;;;;;5076206;28;20058;-90
2022/09/17 01:41:24;;;;;;;8.00;3.63;;;;;;;;;;5058851;28;20044;-91
2022/09/17 01:43:54;;;;;;;4.63;3.75;;;;;;;;;;5058825;28;20489;-90
2022/09/17 01:46:21;;;;;;;5.07;3.90;;;;;;;;;;5058716;28;20055;-89
2022/09/17 01:48:50;;;;;;;8.68;4.47;;;;;;;;;;5077216;28;20048;-90
2022/09/17 01:51:23;;;;;;;10.20;4.18;;;;;;;;;;5059991;28;20053;-89
2022/09/17 01:53:58;;;;;;;4.88;3.75;;;;;;;;;;5059238;28;20040;-90
2022/09/17 01:56:33;;;;;;;7.65;4.60;;;;;;;;;;5059295;28;20412;-89
2022/09/17 01:59:03;;;;;;;5.45;4.03;;;;;;;;;;5063557;28;20131;-89
2022/09/17 02:01:31;;;;;;;5.82;3.63;;;;;;;;;;5058963;28;20603;-90
2022/09/17 02:04:02;;;;;;;4.40;4.10;;;;;;;;;;5058112;28;20056;-89
2022/09/17 02:06:31;;;;;;;6.65;3.92;;;;;;;;;;5058194;28;20182;-89
2022/09/17 02:09:04;;;;;;;7.57;3.65;;;;;;;;;;5058163;28;20051;-89
2022/09/17 02:11:32;;;;;;;;;;;;;;;;;;5058666;28;20131;-88
2022/09/17 02:13:59;;;;;;;6.65;4.10;;;;;;;;;;5057839;28;19920;-89
2022/09/17 02:16:28;;;;;;;7.25;3.22;;;;;;;;;;5057734;28;20080;-87
2022/09/17 02:18:58;;;;;;;8.40;4.30;;;;;;;;;;5075651;28;20087;-89
2022/09/17 02:21:25;;;;;;;8.82;4.38;;;;;;;;;;5057726;28;20078;-89
2022/09/17 02:23:58;;;;;;;6.50;4.00;;;;;;;;;;5058717;28;20056;-89
2022/09/17 02:26:27;;;;;;;5.63;4.03;;;;;;;;;;5077232;28;20132;-87
2022/09/17 02:28:56;;;;;;;4.90;3.60;;;;;;;;;;5078825;28;20572;-88
2022/09/17 02:31:24;;;;;;;7.82;3.45;;;;;;;;;;5063554;28;20060;-88
2022/09/17 02:33:52;;;;;;;6.80;4.35;;;;;;;;;;5060412;28;20132;-87
2022/09/17 02:36:22;;;;;;;6.78;3.42;;;;;;;;;;5079795;28;20070;-87
2022/09/17 02:38:55;;;;;;;4.88;3.50;;;;;;;;;;5059285;28;20044;-87
2022/09/17 02:41:25;;;;;;;3.75;3.38;;;;;;;;;;5061995;28;20135;-88
2022/09/17 02:43:58;;;;;;;4.60;3.78;;;;;;;;;;5061023;28;20048;-87
2022/09/17 02:46:25;;;;;;;5.20;4.05;;;;;;;;;;5066821;28;20048;-85
2022/09/17 02:48:55;;;;;;;5.00;4.03;;;;;;;;;;5080975;28;20064;-88
2022/09/17 02:51:29;;;;;;;4.50;4.10;;;;;;;;;;5061254;28;20509;-86
2022/09/17 02:54:16;;;;;;;4.85;4.00;;;;;;;;;;5059272;28;20083;-86
2022/09/17 02:56:46;;;;;;;7.05;4.72;;;;;;;;;;5058282;28;20456;-86
2022/09/17 02:59:19;;;;;;;5.00;4.38;;;;;;;;;;5058455;28;20174;-86
2022/09/17 03:02:05;;;;;;;6.88;4.35;;;;;;;;;;5059402;28;20044;-84
2022/09/17 03:04:33;;;;;;;7.70;4.60;;;;;;;;;;5058110;28;20048;-86
2022/09/17 03:07:04;;;;;;;4.55;4.15;;;;;;;;;;5075629;28;20059;-84
2022/09/17 03:09:32;;;;;;;8.70;3.95;;;;;;;;;;5058711;28;20055;-86
2022/09/17 03:12:01;;;;;;;8.45;4.32;;;;;;;;;;5057724;28;20052;-87
2022/09/17 03:14:28;;;;;;;11.15;4.50;;;;;;;;;;5059464;28;20470;-86
2022/09/17 03:16:56;;;;;;;4.65;4.25;;;;;;;;;;5061338;28;20044;-86
2022/09/17 03:19:23;;;;;;;4.20;3.90;;;;;;;;;;5060708;28;20163;-86
2022/09/17 03:21:50;;;;;;;5.78;3.80;;;;;;;;;;5061067;28;20087;-86
2022/09/17 03:24:17;;;;;;;9.32;4.22;;;;;;;;;;5058961;28;20142;-86
2022/09/17 03:26:46;;;;;;;4.10;3.90;;;;;;;;;;5059732;28;20052;-85
2022/09/17 03:29:13;;;;;;;7.68;4.78;;;;;;;;;;5059383;28;20489;-85
2022/09/17 03:31:40;;;;;;;4.22;3.83;;;;;;;;;;5059270;28;20143;-87
2022/09/17 03:34:08;;;;;;;5.25;4.38;;;;;;;;;;5059992;28;20079;-86
2022/09/17 03:36:35;;;;;;;4.65;3.85;;;;;;;;;;5058704;28;20472;-84
2022/09/17 03:39:02;;;;;;;4.20;3.53;;;;;;;;;;5059160;28;20151;-85
2022/09/17 03:41:29;;;;;;;5.00;3.47;;;;;;;;;;5076427;28;20051;-85
2022/09/17 03:43:57;;;;;;;3.97;3.67;;;;;;;;;;5057455;28;20052;-84
2022/09/17 03:46:24;;;;;;;4.03;3.53;;;;;;;;;;5075507;28;20147;-84
2022/09/17 03:48:51;;;;;;;4.20;2.67;;;;;;;;;;5058070;28;20095;-85
2022/09/17 03:51:18;;;;;;;3.85;3.40;;;;;;;;;;5081443;28;20493;-84
2022/09/17 03:53:45;;;;;;;4.38;3.42;;;;;;;;;;5061334;28;20044;-85
2022/09/17 03:56:13;;;;;;;4.22;3.30;;;;;;;;;;5078821;28;20045;-85
2022/09/17 03:58:40;;;;;;;3.40;3.15;;;;;;;;;;5059750;28;20072;-84
2022/09/17 04:01:07;;;;;;;3.90;3.60;;;;;;;;;;5058808;28;20128;-85
2022/09/17 04:03:35;;;;;;;4.38;3.28;;;;;;;;;;5059690;28;20052;-85
2022/09/17 04:06:02;;;;;;;3.83;3.53;;;;;;;;;;5078518;28;20052;-85
2022/09/17 04:08:29;;;;;;;4.18;2.70;;;;;;;;;;5063607;28;20091;-87
2022/09/17 04:10:56;;;;;;;2.08;1.98;;;;;;;;;;5063216;28;20076;-86
2022/09/17 04:13:23;;;;;;;2.63;2.35;;;;;;;;;;5062005;28;20133;-86
2022/09/17 04:15:51;;;;;;;3.03;2.75;;;;;;;;;;5063051;28;20116;-86
2022/09/17 04:18:18;;;;;;;3.63;2.83;;;;;;;;;;5061864;28;20041;-83
2022/09/17 04:20:45;;;;;;;3.90;3.00;;;;;;;;;;5059656;28;20072;-84
2022/09/17 04:23:13;;;;;;;3.20;2.83;;;;;;;;;;5059366;28;20084;-83
2022/09/17 04:25:40;;;;;;;2.90;2.70;;;;;;;;;;5058771;28;20058;-84
2022/09/17 04:28:07;;;;;;;2.05;1.95;;;;;;;;;;5059155;28;20053;-84
2022/09/17 04:30:34;;;;;;;1.60;1.50;;;;;;;;;;5058863;28;20505;-84
2022/09/17 04:33:02;;;;;;;1.50;1.40;;;;;;;;;;5060361;28;20162;-84
2022/09/17 04:35:29;;;;;;;1.50;1.40;;;;;;;;;;5078846;28;20044;-84
2022/09/17 04:37:57;;;;;;;2.78;1.55;;;;;;;;;;5062063;28;20476;-84
2022/09/17 04:40:25;;;;;;;2.28;2.05;;;;;;;;;;5060177;28;20044;-84
2022/09/17 04:42:53;;;;;;;2.80;2.30;;;;;;;;;;5060611;28;20063;-85
2022/09/17 04:45:20;;;;;;;2.95;2.28;;;;;;;;;;5061289;28;20087;-84
2022/09/17 04:47:49;;;;;;;2.13;2.03;;;;;;;;;;5079226;28;20048;-84
2022/09/17 04:50:20;;;;;;;2.00;1.90;;;;;;;;;;5069355;28;20098;-82
2022/09/17 04:52:48;;;;;;;1.80;1.70;;;;;;;;;;5068574;28;20079;-83
2022/09/17 04:55:16;;;;;;;2.03;1.92;;;;;;;;;;5058434;28;20131;-83
2022/09/17 04:57:50;;;;;;;1.70;1.70;;;;;;;;;;5058998;28;20083;-84
2022/09/17 05:00:17;;;;;;;3.17;2.03;;;;;;;;;;5059220;28;20050;-84
2022/09/17 05:02:46;;;;;;;2.17;1.85;;;;;;;;;;5062065;28;20083;-83
2022/09/17 05:05:14;;;;;;;2.20;1.40;;;;;;;;;;5083215;28;20123;-84
2022/09/17 05:07:41;;;;;;;2.33;1.35;;;;;;;;;;5065543;28;20094;-84
2022/09/17 05:10:09;;;;;;;1.80;1.60;;;;;;;;;;5065667;28;20053;-83
2022/09/17 05:12:36;;;;;;;1.45;1.25;;;;;;;;;;5082762;28;20064;-83
2022/09/17 05:15:04;;;;;;;1.20;1.10;;;;;;;;;;5083065;28;20139;-83
2022/09/17 05:17:32;;;;;;;1.20;1.20;;;;;;;;;;5063831;28;20052;-83
2022/09/17 05:19:59;;;;;;;1.83;1.48;;;;;;;;;;5065164;28;20044;-83
2022/09/17 05:22:26;;;;;;;1.70;1.70;;;;;;;;;;5065834;28;20127;-83
2022/09/17 05:24:53;;;;;;;1.25;1.20;;;;;;;;;;5070546;28;20064;-84
2022/09/17 05:27:20;;;;;;;1.45;1.13;;;;;;;;;;5068763;28;20048;-84
2022/09/17 05:29:47;;;;;;;0.82;0.80;;;;;;;;;;5069753;28;20040;-84
2022/09/17 05:32:15;;;;;;;2.45;1.23;;;;;;;;;;5069255;28;20044;-85
2022/09/17 05:34:42;;;;;;;1.50;1.40;;;;;;;;;;5068847;28;20045;-84
2022/09/17 05:37:10;;;;;;;2.67;1.13;;;;;;;;;;5071666;28;20141;-84
2022/09/17 05:39:37;;;;;;;0.77;0.70;;;;;;;;;;5070079;28;20052;-85
2022/09/17 05:42:05;;;;;;;0.73;0.73;;;;;;;;;;5067760;28;20087;-83
2022/09/17 05:44:32;;;;;;;2.17;0.75;;;;;;;;;;5084982;28;20056;-84
2022/09/17 05:46:59;;;;;;;0.90;0.90;;;;;;;;;;5068049;28;20592;-85
2022/09/17 05:49:26;;;;;;;2.90;2.80;;;;;;;;;;5068386;28;20053;-83
2022/09/17 05:51:53;;;;;;;4.65;4.35;;;;;;;;;;5068817;28;20059;-85
2022/09/17 05:54:21;;;;;;;1.80;0.82;;;;;;;;;;5068013;28;20056;-84
2022/09/17 05:56:48;;;;;;;2.35;0.77;;;;;;;;;;5067584;28;20528;-84
2022/09/17 05:59:15;;;;;;;0.88;0.80;;;;;;;;;;5065473;28;20048;-84
2022/09/17 06:01:42;;;;;;;1.20;1.10;;;;;;;;;;5065641;28;20079;-84
2022/09/17 06:04:10;;;;;;;0.80;0.80;;;;;;;;;;5066085;28;20591;-84
2022/09/17 06:06:38;;;;;;;1.52;0.85;;;;;;;;;;5065590;28;20112;-84
2022/09/17 06:09:05;;;;;;;1.42;0.90;;;;;;;;;;5083667;28;20497;-84
2022/09/17 06:11:33;;;;;;;1.85;0.65;;;;;;;;;;5064672;28;20092;-84
2022/09/17 06:14:00;;;;;;;1.42;0.73;;;;;;;;;;5062153;28;20100;-86
2022/09/17 06:16:27;;;;;;;0.90;0.65;;;;;;;;;;5076663;28;20452;-86
2022/09/17 06:18:55;;;;;;;1.88;0.60;;;;;;;;;;5058618;28;20055;-86
2022/09/17 06:21:23;;;;;;;6.78;0.93;;;;;;;;;;5076590;28;20095;-84
2022/09/17 06:23:50;;;;;;;1.25;0.88;;;;;;;;;;5059727;28;20131;-84
2022/09/17 06:26:18;;;;;;;1.67;1.05;;;;;;;;;;5059923;28;20426;-85
2022/09/17 06:28:45;;;;;;;2.17;0.90;;;;;;;;;;5063198;28;20147;-86
2022/09/17 06:31:13;;;;;;;2.83;1.23;;;;;;;;;;5077013;28;20127;-83
2022/09/17 06:33:41;;;;;;;1.95;1.13;;;;;;;;;;5059894;28;20510;-86
2022/09/17 06:36:10;;;;;;;3.35;0.70;;;;;;;;;;5060422;28;20044;-86
2022/09/17 06:38:40;;;;;;;4.97;1.35;;;;;;;;;;5076109;28;20041;-86
2022/09/17 06:41:08;;;;;;;4.88;1.10;;;;;;;;;;5057977;28;20093;-86
2022/09/17 06:43:35;;;;;;;4.28;0.80;;;;;;;;;;5059179;28;20052;-84
2022/09/17 06:46:04;;;;;;;3.17;0.80;;;;;;;;;;5066566;28;20056;-82
2022/09/17 06:48:33;;;;;;;2.58;0.50;;;;;;;;;;5063165;28;21036;-87
2022/09/17 06:51:04;;;;;;;2.60;0.40;;;;;;;;;;5079044;28;20565;-86
2022/09/17 06:53:32;;;;;;;1.70;0.30;;;;;;;;;;5065390;28;20420;-85
2022/09/17 06:55:59;;;;;;;2.53;0.50;;;;;;;;;;5066104;28;20053;-85
2022/09/17 06:58:32;;;;;;;4.10;0.50;;;;;;;;;;5065495;28;20047;-87
2022/09/17 07:01:00;;;;;;;3.92;0.77;;;;;;;;;;5065204;28;20044;-87
2022/09/17 07:03:28;;;;;;;1.50;0.68;;;;;;;;;;5061772;28;20102;-87
2022/09/17 07:05:56;;;;;;;3.40;0.60;;;;;;;;;;5059301;28;20048;-82
2022/09/17 07:08:24;;;;;;;0.60;0.57;;;;;;;;;;5058081;28;20052;-87
2022/09/17 07:10:55;;;;;;;2.28;0.63;;;;;;;;;;5061005;28;20048;-86
2022/09/17 07:13:22;;;;;;;2.97;0.70;;;;;;;;;;5058999;28;20049;-87
2022/09/17 07:15:56;;;;;;;2.22;0.63;;;;;;;;;;5060325;28;20087;-88
2022/09/17 07:18:24;;;;;;;1.88;0.57;;;;;;;;;;5064021;28;20068;-84
2022/09/17 07:20:58;;;;;;;1.73;0.43;;;;;;;;;;5066166;28;20048;-85
2022/09/17 07:23:27;;;;;;;3.85;0.75;;;;;;;;;;5057594;22;20088;-80
2022/09/17 07:25:55;;;;;;;3.08;0.50;;;;;;;;;;5054255;28;20063;-80
2022/09/17 07:28:22;;;;;;;1.45;0.70;;;;;;;;;;5057407;28;20422;-80
2022/09/17 07:30:50;;;;;;;2.60;1.08;;;;;;;;;;5075555;28;20143;-80
2022/09/17 07:33:21;;;;;;;2.28;0.95;;;;;;;;;;5075466;28;20483;-80
2022/09/17 07:35:53;;;;;;;4.78;0.60;;;;;;;;;;5076113;28;20044;-80
2022/09/17 07:38:21;;;;;;;1.83;0.65;;;;;;;;;;5074955;28;20055;-80
2022/09/17 07:40:57;;;;;;;4.30;1.10;;;;;;;;;;5057310;28;20087;-80
2022/09/17 07:43:26;;;;;;;6.85;1.15;;;;;;;;;;5059387;28;20045;-80
2022/09/17 07:45:53;;;;;;;4.32;1.00;;;;;;;;;;5058385;28;20143;-80
2022/09/17 07:48:20;;;;;;;7.82;0.90;;;;;;;;;;5075843;28;20055;-80
2022/09/17 07:50:47;;;;;;;4.35;1.20;;;;;;;;;;5075194;28;20052;-81
2022/09/17 07:53:14;;;;;;;7.05;1.23;;;;;;;;;;5075978;28;20419;-81
2022/09/17 07:55:42;;;;;;;3.97;1.10;;;;;;;;;;5074209;28;20067;-81
2022/09/17 07:58:09;;;;;;;5.03;1.27;;;;;;;;;;5056598;28;20048;-79
2022/09/17 08:00:36;;;;;;;3.85;0.95;;;;;;;;;;5056814;28;20164;-81
2022/09/17 08:03:03;;;;;;;6.43;1.10;;;;;;;;;;5074299;28;20142;-81
2022/09/17 08:05:31;;;;;;;3.10;0.80;;;;;;;;;;5073916;28;20052;-79
2022/09/17 08:07:59;;;;;;;5.95;1.23;;;;;;;;;;5073937;28;20049;-80
2022/09/17 08:10:26;;;;;;;4.38;1.27;;;;;;;;;;5055627;28;20055;-78
2022/09/17 08:12:57;;;;;;;3.78;1.10;;;;;;;;;;5055752;28;20139;-80
2022/09/17 08:15:24;;;;;;;4.05;1.15;;;;;;;;;;5055634;28;20480;-80
2022/09/17 08:17:51;;;;;;;6.03;1.15;;;;;;;;;;5055946;28;20044;-80
2022/09/17 08:20:19;;;;;;;5.30;1.58;;;;;;;;;;5055770;28;20127;-80
2022/09/17 08:22:46;;;;;;;6.03;1.77;;;;;;;;;;5055741;28;20084;-80
2022/09/17 08:25:16;;;;;;;6.10;1.45;;;;;;;;;;5074180;28;20048;-79
2022/09/17 08:27:43;;;;;;;8.32;2.05;;;;;;;;;;5073551;28;20048;-80
2022/09/17 08:30:10;;;;;;;12.05;1.83;;;;;;;;;;5072942;28;20053;-80
2022/09/17 08:32:38;;;;;;;8.20;1.70;;;;;;;;;;5073097;28;20062;-80
2022/09/17 08:35:06;;;;;;;8.65;1.92;;;;;;;;;;5073550;28;20406;-80
2022/09/17 08:37:34;;;;;;;6.50;1.58;;;;;;;;;;5054874;28;20053;-80
2022/09/17 08:40:01;;;;;;;6.53;1.58;;;;;;;;;;5068656;28;20041;-80
2022/09/17 08:42:38;;;;;;;10.73;1.70;;;;;;;;;;5063541;28;20076;-81
2022/09/17 08:45:09;;;;;;;10.05;1.52;;;;;;;;;;5077355;28;20048;-81
2022/09/17 08:47:42;;;;;;;8.50;1.90;;;;;;;;;;5076018;28;20048;-81
2022/09/17 08:50:14;;;;;;;10.77;1.87;;;;;;;;;;5058326;28;20055;-80
2022/09/17 08:53:01;;;;;;;8.27;1.40;;;;;;;;;;5076355;28;20052;-81
2022/09/17 08:55:35;;;;;;;8.43;2.03;;;;;;;;;;5057990;28;20052;-81
2022/09/17 08:58:02;;;;;;;8.45;1.45;;;;;;;;;;5050820;28;20127;-81
2022/09/17 09:00:33;;;;;;;7.30;1.73;;;;;;;;;;5057612;28;20045;-81
2022/09/17 09:03:00;;;;;;;5.10;1.25;;;;;;;;;;5049542;28;20048;-81
2022/09/17 09:05:29;;;;;;;7.30;1.58;;;;;;;;;;5074841;28;20127;-82
2022/09/17 09:08:01;;;;;;;4.43;1.40;;;;;;;;;;5059631;28;20044;-82
2022/09/17 09:10:36;;;;;;;7.28;1.83;;;;;;;;;;5060119;28;20135;-81
2022/09/17 09:13:04;;;;;;;6.25;2.17;;;;;;;;;;5070178;28;20054;-81
2022/09/17 09:15:33;;;;;;;10.70;3.60;;;;;;;;;;5076066;28;20414;-81
2022/09/17 09:18:17;;;;;;;8.48;1.60;;;;;;;;;;5068259;28;20067;-81
2022/09/17 09:20:50;;;;;;;12.98;2.03;;;;;;;;;;5076229;28;20041;-80
2022/09/17 09:23:19;;;;;;;9.20;1.93;;;;;;;;;;5056843;28;20107;-80
2022/09/17 09:25:54;;;;;;;8.13;1.50;;;;;;;;;;5054223;28;20075;-80
2022/09/17 09:28:34;;;;;;;7.35;1.55;;;;;;;;;;5071991;28;20055;-80
2022/09/17 09:31:04;;;;;;;7.20;1.58;;;;;;;;;;5046760;28;20052;-80
2022/09/17 09:33:34;;;;;;;8.75;4.22;;;;;;;;;;5054221;28;20051;-80
2022/09/17 09:36:02;;;;;;;7.70;1.60;;;;;;;;;;5064293;28;20051;-80
2022/09/17 09:38:31;;;;;;;6.20;1.38;;;;;;;;;;5071632;28;20047;-80
2022/09/17 09:41:02;;;;;;;9.98;1.58;;;;;;;;;;5054521;28;20052;-80
2022/09/17 09:43:47;;;;;;;9.82;1.67;;;;;;;;;;5072074;28;20041;-80
2022/09/17 09:47:14;;;;;;;12.32;2.22;;;;;;;;;;5072033;28;20056;-81
2022/09/17 09:49:59;;;;;;;7.72;1.50;;;;;;;;;;4977797;28;20070;-80
2022/09/17 09:52:36;;;;;;;7.72;1.52;;;;;;;;;;4978698;28;20050;-80
2022/09/17 09:55:23;;;;;;;8.48;1.75;;;;;;;;;;5050436;28;20049;-80
2022/09/17 09:57:56;;;;;;;8.18;1.60;;;;;;;;;;5059253;28;20049;-81
2022/09/17 10:00:28;;;;;;;8.35;1.70;;;;;;;;;;5058215;28;20049;-80
2022/09/17 10:03:03;;;;;;;13.65;1.85;;;;;;;;;;5058859;28;20127;-80
2022/09/17 10:05:31;;;;;;;7.03;1.40;;;;;;;;;;5058110;28;20056;-81
2022/09/17 10:07:58;;;;;;;5.43;1.50;;;;;;;;;;5076585;28;20049;-81
2022/09/17 10:10:25;;;;;;;7.15;1.95;;;;;;;;;;5058506;28;20049;-80
2022/09/17 10:13:05;;;;;;;7.45;1.67;;;;;;;;;;5077360;28;20507;-80
2022/09/17 10:15:32;;;;;;;7.50;1.42;;;;;;;;;;5077524;28;20057;-80
2022/09/17 10:18:12;;;;;;;4.38;1.40;;;;;;;;;;5076896;28;20507;-81
2022/09/17 10:20:48;;;;;;;9.10;1.73;;;;;;;;;;5059497;28;20049;-81
2022/09/17 10:23:16;;;;;;;6.43;1.63;;;;;;;;;;5076428;28;20052;-81
2022/09/17 10:25:43;;;;;;;6.78;1.63;;;;;;;;;;5077323;28;20067;-81
2022/09/17 10:28:28;;;;;;;8.77;1.60;;;;;;;;;;5058888;28;20048;-82
2022/09/17 10:30:59;;;;;;;5.03;1.90;;;;;;;;;;5076503;28;20048;-82
2022/09/17 10:33:32;;;;;;;5.45;1.50;;;;;;;;;;5076595;28;20053;-81
2022/09/17 10:36:03;;;;;;;5.15;1.45;;;;;;;;;;5058553;28;20045;-81
2022/09/17 10:38:32;;;;;;;9.52;1.42;;;;;;;;;;5057762;28;20574;-81
2022/09/17 10:41:12;;;;;;;5.38;1.27;;;;;;;;;;5059235;28;20044;-82
2022/09/17 10:43:40;;;;;;;11.07;1.92;;;;;;;;;;5057835;28;20479;-82
2022/09/17 10:46:09;;;;;;;6.47;1.70;;;;;;;;;;5080586;28;20048;-83
2022/09/17 10:49:02;;;;;;;6.97;1.67;;;;;;;;;;5080364;28;20052;-83
2022/09/17 10:51:30;;;;;;;5.88;1.42;;;;;;;;;;5058896;28;20062;-83
2022/09/17 10:54:13;;;;;;;9.73;2.25;;;;;;;;;;5079992;28;20139;-83
2022/09/17 10:56:42;;;;;;;3.70;1.35;;;;;;;;;;5079285;28;20044;-82
2022/09/17 10:59:25;;;;;;;11.77;2.10;;;;;;;;;;5061929;28;20051;-83
2022/09/17 11:02:00;;;;;;;5.90;1.40;;;;;;;;;;5074438;28;20055;-81
2022/09/17 11:04:30;;;;;;;5.40;1.20;;;;;;;;;;5074441;28;20052;-81
2022/09/17 11:07:09;;;;;;;3.03;1.30;;;;;;;;;;5056940;28;20051;-81
2022/09/17 11:09:50;;;;;;;7.20;1.40;;;;;;;;;;5056971;28;20055;-81
2022/09/17 11:12:38;;;;;;;3.53;1.13;;;;;;;;;;5074451;28;20044;-81
2022/09/17 11:15:21;;;;;;;4.80;1.10;;;;;;;;;;5049851;28;20076;-80
2022/09/17 11:17:53;;;;;;;4.78;1.55;;;;;;;;;;5074851;28;20070;-80
2022/09/17 11:20:45;;;;;;;5.18;1.65;;;;;;;;;;5074097;28;20496;-81
2022/09/17 11:23:15;;;;;;;5.95;1.77;;;;;;;;;;5074442;28;20499;-81
2022/09/17 11:25:57;;;;;;;5.53;1.25;;;;;;;;;;5060953;28;20039;-81
2022/09/17 11:28:30;;;;;;;6.55;1.70;;;;;;;;;;5068438;28;20128;-79
2022/09/17 11:31:03;;;;;;;3.25;0.85;;;;;;;;;;5062527;28;20056;-83
2022/09/17 11:33:36;;;;;;;5.80;1.42;;;;;;;;;;5078886;28;20079;-82
2022/09/17 11:36:08;;;;;;;6.95;1.30;;;;;;;;;;5061123;28;20127;-82
2022/09/17 11:38:42;;;;;;;4.45;1.38;;;;;;;;;;5059803;28;20418;-82
2022/09/17 11:41:14;;;;;;;6.07;1.33;;;;;;;;;;5059346;28;20154;-80
2022/09/17 11:43:44;;;;;;;2.97;1.02;;;;;;;;;;5059686;28;20098;-81
2022/09/17 11:46:18;;;;;;;3.47;1.10;;;;;;;;;;5058953;28;20045;-81
2022/09/17 11:48:48;;;;;;;2.70;0.85;;;;;;;;;;5059992;28;20098;-81
2022/09/17 11:51:41;;;;;;;5.03;1.00;;;;;;;;;;5078875;28;20509;-82
2022/09/17 11:54:14;;;;;;;3.67;1.13;;;;;;;;;;5073866;28;20049;-81
2022/09/17 11:56:43;;;;;;;9.25;1.25;;;;;;;;;;5064681;28;20050;-83
2022/09/17 11:59:17;;;;;;;5.30;1.08;;;;;;;;;;5061848;28;20051;-82
2022/09/17 12:01:50;;;;;;;2.95;0.85;;;;;;;;;;5061878;28;20487;-81
2022/09/17 12:04:39;;;;;;;2.20;0.73;;;;;;;;;;5078899;28;20113;-82
2022/09/17 12:07:12;;;;;;;6.57;1.13;;;;;;;;;;5062596;28;20040;-81
2022/09/17 12:09:43;;;;;;;2.58;1.05;;;;;;;;;;5060396;28;20427;-83
2022/09/17 12:12:14;;;;;;;3.55;0.77;;;;;;;;;;5061072;28;20487;-84
2022/09/17 12:15:13;;;;;;;4.30;0.90;;;;;;;;;;5079369;28;20384;-81
2022/09/17 12:17:56;;;;;;;9.35;0.80;;;;;;;;;;5060827;28;20044;-81
2022/09/17 12:20:45;;;;;;;7.27;1.27;;;;;;;;;;5062596;28;20052;-82
2022/09/17 12:23:15;;;;;;;5.85;0.75;;;;;;;;;;5077347;28;20519;-82
2022/09/17 12:26:08;;;;;;;2.95;0.60;;;;;;;;;;5059446;28;20416;-82
2022/09/17 12:28:46;;;;;;;3.40;1.20;;;;;;;;;;5072944;28;20055;-81
2022/09/17 12:31:23;;;;;;;3.95;0.90;;;;;;;;;;5075600;28;20054;-81
2022/09/17 12:33:54;;;;;;;1.65;0.38;;;;;;;;;;5076089;28;20090;-81
2022/09/17 12:36:24;;;;;;;1.75;0.30;;;;;;;;;;5058033;28;20053;-81
2022/09/17 12:39:10;;;;;;;1.77;0.45;;;;;;;;;;5075784;28;20049;-80
2022/09/17 12:41:37;;;;;;;5.35;0.52;;;;;;;;;;5054748;28;20445;-80
2022/09/17 12:44:14;;;;;;;1.60;0.30;;;;;;;;;;5055087;28;20052;-80
2022/09/17 12:47:03;;;;;;;2.95;0.88;;;;;;;;;;5055170;28;20052;-80
2022/09/17 12:49:30;;;;;;;4.53;0.70;;;;;;;;;;5054976;28;20414;-80
2022/09/17 12:51:59;;;;;;;3.88;1.00;;;;;;;;;;5054961;28;20419;-80
2022/09/17 12:54:40;;;;;;;7.13;0.90;;;;;;;;;;5072516;28;20137;-81
2022/09/17 12:57:25;;;;;;;3.42;0.88;;;;;;;;;;5073047;28;20128;-80
2022/09/17 13:00:02;;;;;;;7.07;1.40;;;;;;;;;;5073129;28;20052;-81
2022/09/17 13:02:37;;;;;;;3.22;0.70;;;;;;;;;;5072412;28;20048;-81
2022/09/17 13:05:18;;;;;;;3.55;0.77;;;;;;;;;;5055153;28;20135;-81
2022/09/17 13:07:57;;;;;;;3.60;0.80;;;;;;;;;;5055719;28;20408;-82
2022/09/17 13:10:40;;;;;;;3.40;0.70;;;;;;;;;;5054976;28;20056;-79
2022/09/17 13:13:25;;;;;;;5.07;0.85;;;;;;;;;;5072392;28;20052;-80
2022/09/17 13:15:57;;;;;;;3.90;0.60;;;;;;;;;;5073128;28;20048;-81
2022/09/17 13:18:29;;;;;;;4.90;1.10;;;;;;;;;;5072664;28;20044;-80
2022/09/17 13:21:00;;;;;;;10.68;1.30;;;;;;;;;;5072584;28;20051;-80
2022/09/17 13:23:33;;;;;;;5.85;1.20;;;;;;;;;;5091979;22;20052;-88
2022/09/17 13:26:04;;;;;;;3.55;0.70;;;;;;;;;;5080194;28;20048;-89
2022/09/17 13:28:39;;;;;;;6.70;1.20;;;;;;;;;;5080195;28;20054;-89
2022/09/17 13:31:18;;;;;;;3.85;0.95;;;;;;;;;;5080887;28;20056;-88
2022/09/17 13:33:53;;;;;;;3.65;0.82;;;;;;;;;;5080223;28;20048;-88
2022/09/17 13:36:33;;;;;;;3.45;0.73;;;;;;;;;;5079658;28;20066;-89
2022/09/17 13:39:01;;;;;;;3.85;0.70;;;;;;;;;;5079983;28;20040;-88
2022/09/17 13:41:29;;;;;;;5.05;0.88;;;;;;;;;;5097532;28;20050;-89
2022/09/17 13:43:56;;;;;;;4.95;1.25;;;;;;;;;;5097306;28;20046;-88
2022/09/17 13:46:25;;;;;;;3.63;0.77;;;;;;;;;;5096964;28;20058;-90
2022/09/17 13:48:54;;;;;;;3.45;0.88;;;;;;;;;;5097272;28;20474;-89
2022/09/17 13:51:30;;;;;;;6.28;0.88;;;;;;;;;;5079483;28;20044;-90
2022/09/17 13:53:59;;;;;;;4.18;0.82;;;;;;;;;;5097174;28;20055;-87
2022/09/17 13:56:41;;;;;;;5.05;0.98;;;;;;;;;;5079198;28;20048;-90
2022/09/17 13:59:20;;;;;;;3.17;0.80;;;;;;;;;;5079032;28;20070;-88
2022/09/17 14:02:01;;;;;;;1.77;0.65;;;;;;;;;;5079460;28;20044;-92
2022/09/17 14:04:41;;;;;;;3.85;1.05;;;;;;;;;;5096865;28;20054;-91
2022/09/17 14:07:25;;;;;;;7.45;1.65;;;;;;;;;;5079422;28;20056;-88
2022/09/17 14:09:54;;;;;;;8.48;1.10;;;;;;;;;;5096864;28;20530;-90
2022/09/17 14:12:46;;;;;;;3.65;0.73;;;;;;;;;;5078936;28;20060;-89
2022/09/17 14:15:32;;;;;;;3.80;0.65;;;;;;;;;;5078893;28;20044;-89
2022/09/17 14:18:01;;;;;;;3.63;0.90;;;;;;;;;;5079512;28;20055;-89
2022/09/17 14:20:29;;;;;;;5.05;1.00;;;;;;;;;;5079342;28;20146;-89
2022/09/17 14:22:57;;;;;;;2.72;0.90;;;;;;;;;;5079436;28;20064;-89
2022/09/17 14:25:42;;;;;;;4.00;1.45;;;;;;;;;;5078819;28;20044;-91
2022/09/17 14:28:29;;;;;;;3.28;1.20;;;;;;;;;;5078706;28;20055;-92
2022/09/17 14:30:56;;;;;;;3.63;0.82;;;;;;;;;;5079461;28;20565;-89
2022/09/17 14:33:29;;;;;;;4.47;0.70;;;;;;;;;;5078479;28;20044;-87
2022/09/17 14:36:01;;;;;;;5.97;0.73;;;;;;;;;;5077742;28;20060;-89
2022/09/17 14:38:43;;;;;;;4.97;1.00;;;;;;;;;;5096111;28;20055;-89
2022/09/17 14:41:10;;;;;;;5.68;1.40;;;;;;;;;;5078541;28;20047;-88
2022/09/17 14:43:47;;;;;;;8.38;1.05;;;;;;;;;;5078555;28;20044;-89
2022/09/17 14:46:18;;;;;;;3.17;0.90;;;;;;;;;;5078239;28;20047;-87
2022/09/17 14:48:45;;;;;;;2.35;0.82;;;;;;;;;;5096005;28;20055;-86
2022/09/17 14:51:18;;;;;;;4.72;1.08;;;;;;;;;;5078171;28;20098;-89
2022/09/17 14:54:05;;;;;;;4.18;0.88;;;;;;;;;;5078405;28;20044;-92
2022/09/17 14:56:39;;;;;;;3.10;0.70;;;;;;;;;;5078486;28;20044;-90
2022/09/17 14:59:14;;;;;;;2.63;0.88;;;;;;;;;;5095693;28;20498;-89
2022/09/17 15:01:46;;;;;;;2.38;0.57;;;;;;;;;;5095784;28;20486;-88
2022/09/17 15:04:13;;;;;;;3.17;0.45;;;;;;;;;;5077893;28;20130;-88
2022/09/17 15:06:40;;;;;;;2.53;0.50;;;;;;;;;;5078121;28;20411;-88
2022/09/17 15:09:18;;;;;;;2.88;0.60;;;;;;;;;;5077952;28;20051;-87